sensor_id;sensor_type;location;lat;lon;timestamp;P1;durP1;ratioP1;P2;durP2;ratioP2
49828;SDS011;35723;51.194;5.112;2022-12-31T00:02:03;2.90;;;1.70;;
49828;SDS011;35723;51.194;5.112;2022-12-31T00:04:29;3.42;;;1.73;;
49828;SDS011;35723;51.194;5.112;2022-12-31T00:06:54;1.98;;;1.42;;
49828;SDS011;35723;51.194;5.112;2022-12-31T00:09:20;2.33;;;1.60;;
49828;SDS011;35723;51.194;5.112;2022-12-31T00:11:46;4.32;;;1.55;;
49828;SDS011;35723;51.194;5.112;2022-12-31T00:14:11;3.15;;;1.50;;
49828;SDS011;35723;51.194;5.112;2022-12-31T00:16:38;4.07;;;1.50;;
49828;SDS011;35723;51.194;5.112;2022-12-31T00:19:06;5.18;;;1.67;;
49828;SDS011;35723;51.194;5.112;2022-12-31T00:21:33;1.77;;;1.27;;
49828;SDS011;35723;51.194;5.112;2022-12-31T00:23:59;2.20;;;1.35;;
49828;SDS011;35723;51.194;5.112;2022-12-31T00:26:27;3.85;;;1.40;;
49828;SDS011;35723;51.194;5.112;2022-12-31T00:28:55;2.85;;;1.48;;
49828;SDS011;35723;51.194;5.112;2022-12-31T00:31:22;4.65;;;1.83;;
49828;SDS011;35723;51.194;5.112;2022-12-31T00:33:50;5.40;;;1.70;;
49828;SDS011;35723;51.194;5.112;2022-12-31T00:36:26;3.88;;;1.83;;
49828;SDS011;35723;51.194;5.112;2022-12-31T00:38:54;3.47;;;2.00;;
49828;SDS011;35723;51.194;5.112;2022-12-31T00:41:21;6.15;;;2.20;;
49828;SDS011;35723;51.194;5.112;2022-12-31T00:43:47;4.40;;;2.05;;
49828;SDS011;35723;51.194;5.112;2022-12-31T00:46:13;5.75;;;2.30;;
49828;SDS011;35723;51.194;5.112;2022-12-31T00:48:40;2.80;;;2.20;;
49828;SDS011;35723;51.194;5.112;2022-12-31T00:51:07;6.55;;;2.30;;
49828;SDS011;35723;51.194;5.112;2022-12-31T00:53:35;3.28;;;1.90;;
49828;SDS011;35723;51.194;5.112;2022-12-31T00:56:02;4.60;;;2.03;;
49828;SDS011;35723;51.194;5.112;2022-12-31T00:58:40;3.05;;;1.80;;
49828;SDS011;35723;51.194;5.112;2022-12-31T01:01:10;3.72;;;1.50;;
49828;SDS011;35723;51.194;5.112;2022-12-31T01:03:39;2.63;;;1.40;;
49828;SDS011;35723;51.194;5.112;2022-12-31T01:06:05;2.85;;;1.50;;
49828;SDS011;35723;51.194;5.112;2022-12-31T01:08:31;1.88;;;1.20;;
49828;SDS011;35723;51.194;5.112;2022-12-31T01:10:58;1.88;;;1.05;;
49828;SDS011;35723;51.194;5.112;2022-12-31T01:13:43;2.08;;;1.10;;
49828;SDS011;35723;51.194;5.112;2022-12-31T01:16:10;1.92;;;1.13;;
49828;SDS011;35723;51.194;5.112;2022-12-31T01:18:37;2.38;;;0.90;;
49828;SDS011;35723;51.194;5.112;2022-12-31T01:21:03;2.63;;;0.95;;
49828;SDS011;35723;51.194;5.112;2022-12-31T01:23:31;1.23;;;0.80;;
49828;SDS011;35723;51.194;5.112;2022-12-31T01:26:01;3.00;;;0.80;;
49828;SDS011;35723;51.194;5.112;2022-12-31T01:28:28;2.85;;;0.90;;
49828;SDS011;35723;51.194;5.112;2022-12-31T01:30:54;2.47;;;0.75;;
49828;SDS011;35723;51.194;5.112;2022-12-31T01:33:20;1.55;;;0.85;;
49828;SDS011;35723;51.194;5.112;2022-12-31T01:35:45;0.80;;;0.60;;
49828;SDS011;35723;51.194;5.112;2022-12-31T01:38:11;1.50;;;0.60;;
49828;SDS011;35723;51.194;5.112;2022-12-31T01:40:37;1.23;;;0.57;;
49828;SDS011;35723;51.194;5.112;2022-12-31T01:43:08;3.22;;;0.55;;
49828;SDS011;35723;51.194;5.112;2022-12-31T01:45:40;1.55;;;0.60;;
49828;SDS011;35723;51.194;5.112;2022-12-31T01:48:07;2.05;;;0.40;;
49828;SDS011;35723;51.194;5.112;2022-12-31T01:50:38;2.53;;;0.50;;
49828;SDS011;35723;51.194;5.112;2022-12-31T01:53:05;0.30;;;0.30;;
49828;SDS011;35723;51.194;5.112;2022-12-31T01:55:34;1.17;;;0.28;;
49828;SDS011;35723;51.194;5.112;2022-12-31T01:58:06;0.93;;;0.40;;
49828;SDS011;35723;51.194;5.112;2022-12-31T02:00:38;0.90;;;0.30;;
49828;SDS011;35723;51.194;5.112;2022-12-31T02:03:04;1.88;;;0.40;;
49828;SDS011;35723;51.194;5.112;2022-12-31T02:05:33;0.60;;;0.40;;
49828;SDS011;35723;51.194;5.112;2022-12-31T02:08:03;0.65;;;0.30;;
49828;SDS011;35723;51.194;5.112;2022-12-31T02:10:30;0.68;;;0.30;;
49828;SDS011;35723;51.194;5.112;2022-12-31T02:12:56;1.48;;;0.60;;
49828;SDS011;35723;51.194;5.112;2022-12-31T02:15:24;1.65;;;0.73;;
49828;SDS011;35723;51.194;5.112;2022-12-31T02:23:59;2.83;;;1.65;;
49828;SDS011;35723;51.194;5.112;2022-12-31T02:27:12;1.33;;;0.90;;
49828;SDS011;35723;51.194;5.112;2022-12-31T02:32:21;0.57;;;0.50;;
49828;SDS011;35723;51.194;5.112;2022-12-31T02:34:59;2.25;;;0.60;;
49828;SDS011;35723;51.194;5.112;2022-12-31T02:37:30;0.45;;;0.30;;
49828;SDS011;35723;51.194;5.112;2022-12-31T02:39:57;0.47;;;0.47;;
49828;SDS011;35723;51.194;5.112;2022-12-31T02:42:23;1.90;;;0.50;;
49828;SDS011;35723;51.194;5.112;2022-12-31T02:44:49;1.02;;;0.93;;
49828;SDS011;35723;51.194;5.112;2022-12-31T02:50:02;0.88;;;0.70;;
49828;SDS011;35723;51.194;5.112;2022-12-31T02:52:50;0.88;;;0.68;;
49828;SDS011;35723;51.194;5.112;2022-12-31T03:01:32;1.02;;;0.80;;
49828;SDS011;35723;51.194;5.112;2022-12-31T03:04:20;3.00;;;0.70;;
49828;SDS011;35723;51.194;5.112;2022-12-31T03:07:04;0.40;;;0.40;;
49828;SDS011;35723;51.194;5.112;2022-12-31T03:09:38;1.50;;;0.80;;
49828;SDS011;35723;51.194;5.112;2022-12-31T03:12:05;0.85;;;0.60;;
49828;SDS011;35723;51.194;5.112;2022-12-31T03:14:51;2.38;;;0.50;;
49828;SDS011;35723;51.194;5.112;2022-12-31T03:17:17;0.50;;;0.47;;
49828;SDS011;35723;51.194;5.112;2022-12-31T03:19:43;3.50;;;0.60;;
49828;SDS011;35723;51.194;5.112;2022-12-31T03:22:27;3.67;;;0.70;;
49828;SDS011;35723;51.194;5.112;2022-12-31T03:24:54;5.03;;;0.90;;
49828;SDS011;35723;51.194;5.112;2022-12-31T03:28:18;2.50;;;0.85;;
49828;SDS011;35723;51.194;5.112;2022-12-31T03:30:47;7.20;;;0.80;;
49828;SDS011;35723;51.194;5.112;2022-12-31T03:33:15;11.38;;;0.98;;
49828;SDS011;35723;51.194;5.112;2022-12-31T03:35:42;9.30;;;0.95;;
49828;SDS011;35723;51.194;5.112;2022-12-31T03:38:09;5.75;;;1.08;;
49828;SDS011;35723;51.194;5.112;2022-12-31T03:40:37;7.82;;;1.02;;
49828;SDS011;35723;51.194;5.112;2022-12-31T03:43:07;5.65;;;1.30;;
49828;SDS011;35723;51.194;5.112;2022-12-31T03:45:33;6.25;;;1.00;;
49828;SDS011;35723;51.194;5.112;2022-12-31T03:47:59;6.82;;;1.10;;
49828;SDS011;35723;51.194;5.112;2022-12-31T03:50:25;6.13;;;1.02;;
49828;SDS011;35723;51.194;5.112;2022-12-31T03:52:51;4.80;;;1.10;;
49828;SDS011;35723;51.194;5.112;2022-12-31T03:55:17;6.65;;;1.10;;
49828;SDS011;35723;51.194;5.112;2022-12-31T03:57:43;7.07;;;1.10;;
49828;SDS011;35723;51.194;5.112;2022-12-31T04:00:11;8.25;;;1.50;;
49828;SDS011;35723;51.194;5.112;2022-12-31T04:02:39;7.25;;;1.00;;
49828;SDS011;35723;51.194;5.112;2022-12-31T04:05:05;3.30;;;0.93;;
49828;SDS011;35723;51.194;5.112;2022-12-31T04:07:31;4.85;;;0.80;;
49828;SDS011;35723;51.194;5.112;2022-12-31T04:09:57;5.35;;;1.20;;
49828;SDS011;35723;51.194;5.112;2022-12-31T04:12:22;4.75;;;0.90;;
49828;SDS011;35723;51.194;5.112;2022-12-31T04:14:48;5.13;;;0.85;;
49828;SDS011;35723;51.194;5.112;2022-12-31T04:17:14;2.17;;;0.68;;
49828;SDS011;35723;51.194;5.112;2022-12-31T04:19:39;5.88;;;1.10;;
49828;SDS011;35723;51.194;5.112;2022-12-31T04:22:05;3.72;;;0.75;;
49828;SDS011;35723;51.194;5.112;2022-12-31T04:24:31;4.60;;;1.00;;
49828;SDS011;35723;51.194;5.112;2022-12-31T04:26:57;3.00;;;0.95;;
49828;SDS011;35723;51.194;5.112;2022-12-31T04:29:22;7.00;;;1.25;;
49828;SDS011;35723;51.194;5.112;2022-12-31T04:31:48;4.15;;;1.00;;
49828;SDS011;35723;51.194;5.112;2022-12-31T04:34:14;4.47;;;1.10;;
49828;SDS011;35723;51.194;5.112;2022-12-31T04:36:39;3.00;;;1.05;;
49828;SDS011;35723;51.194;5.112;2022-12-31T04:39:05;4.57;;;0.95;;
49828;SDS011;35723;51.194;5.112;2022-12-31T04:41:31;5.85;;;1.20;;
49828;SDS011;35723;51.194;5.112;2022-12-31T04:43:57;4.40;;;0.98;;
49828;SDS011;35723;51.194;5.112;2022-12-31T04:46:24;5.20;;;1.02;;
49828;SDS011;35723;51.194;5.112;2022-12-31T04:48:51;5.65;;;1.10;;
49828;SDS011;35723;51.194;5.112;2022-12-31T04:51:18;3.88;;;0.70;;
49828;SDS011;35723;51.194;5.112;2022-12-31T04:53:44;3.72;;;1.00;;
49828;SDS011;35723;51.194;5.112;2022-12-31T04:56:09;5.28;;;0.70;;
49828;SDS011;35723;51.194;5.112;2022-12-31T04:58:36;4.05;;;1.10;;
49828;SDS011;35723;51.194;5.112;2022-12-31T05:01:02;6.50;;;0.93;;
49828;SDS011;35723;51.194;5.112;2022-12-31T05:03:28;4.20;;;0.80;;
49828;SDS011;35723;51.194;5.112;2022-12-31T05:05:58;8.25;;;0.93;;
49828;SDS011;35723;51.194;5.112;2022-12-31T05:08:35;3.03;;;0.77;;
49828;SDS011;35723;51.194;5.112;2022-12-31T05:11:01;3.50;;;0.95;;
49828;SDS011;35723;51.194;5.112;2022-12-31T05:13:27;7.13;;;1.33;;
49828;SDS011;35723;51.194;5.112;2022-12-31T05:15:53;3.95;;;0.68;;
49828;SDS011;35723;51.194;5.112;2022-12-31T05:18:19;4.82;;;0.77;;
49828;SDS011;35723;51.194;5.112;2022-12-31T05:20:45;5.95;;;0.85;;
49828;SDS011;35723;51.194;5.112;2022-12-31T05:23:11;6.25;;;0.80;;
49828;SDS011;35723;51.194;5.112;2022-12-31T05:25:37;6.78;;;0.90;;
49828;SDS011;35723;51.194;5.112;2022-12-31T05:28:05;5.50;;;1.05;;
49828;SDS011;35723;51.194;5.112;2022-12-31T05:30:30;4.65;;;0.93;;
49828;SDS011;35723;51.194;5.112;2022-12-31T05:32:56;2.53;;;0.82;;
49828;SDS011;35723;51.194;5.112;2022-12-31T05:35:22;7.25;;;1.33;;
49828;SDS011;35723;51.194;5.112;2022-12-31T05:37:47;5.40;;;0.70;;
49828;SDS011;35723;51.194;5.112;2022-12-31T05:40:13;4.40;;;0.77;;
49828;SDS011;35723;51.194;5.112;2022-12-31T05:42:38;6.97;;;1.27;;
49828;SDS011;35723;51.194;5.112;2022-12-31T05:45:04;2.83;;;0.70;;
49828;SDS011;35723;51.194;5.112;2022-12-31T05:47:30;3.72;;;0.90;;
49828;SDS011;35723;51.194;5.112;2022-12-31T05:49:56;8.32;;;0.98;;
49828;SDS011;35723;51.194;5.112;2022-12-31T05:52:22;4.47;;;0.80;;
49828;SDS011;35723;51.194;5.112;2022-12-31T05:54:48;6.90;;;1.13;;
49828;SDS011;35723;51.194;5.112;2022-12-31T05:57:13;4.55;;;0.90;;
49828;SDS011;35723;51.194;5.112;2022-12-31T05:59:39;7.40;;;1.20;;
49828;SDS011;35723;51.194;5.112;2022-12-31T06:02:04;3.28;;;0.70;;
49828;SDS011;35723;51.194;5.112;2022-12-31T06:04:30;3.25;;;0.68;;
49828;SDS011;35723;51.194;5.112;2022-12-31T06:06:56;5.35;;;1.15;;
49828;SDS011;35723;51.194;5.112;2022-12-31T06:09:22;4.25;;;0.73;;
49828;SDS011;35723;51.194;5.112;2022-12-31T06:11:47;4.03;;;0.75;;
49828;SDS011;35723;51.194;5.112;2022-12-31T06:14:13;2.85;;;0.80;;
49828;SDS011;35723;51.194;5.112;2022-12-31T06:16:39;5.32;;;1.05;;
49828;SDS011;35723;51.194;5.112;2022-12-31T06:19:05;4.95;;;1.10;;
49828;SDS011;35723;51.194;5.112;2022-12-31T06:21:31;6.43;;;0.98;;
49828;SDS011;35723;51.194;5.112;2022-12-31T06:23:57;2.83;;;0.70;;
49828;SDS011;35723;51.194;5.112;2022-12-31T06:26:23;5.95;;;0.70;;
49828;SDS011;35723;51.194;5.112;2022-12-31T06:28:49;6.50;;;0.90;;
49828;SDS011;35723;51.194;5.112;2022-12-31T06:31:15;9.30;;;1.05;;
49828;SDS011;35723;51.194;5.112;2022-12-31T06:33:41;4.53;;;0.98;;
49828;SDS011;35723;51.194;5.112;2022-12-31T06:36:08;4.78;;;0.77;;
49828;SDS011;35723;51.194;5.112;2022-12-31T06:38:37;6.78;;;0.90;;
49828;SDS011;35723;51.194;5.112;2022-12-31T06:41:08;6.88;;;1.20;;
49828;SDS011;35723;51.194;5.112;2022-12-31T06:43:36;5.55;;;1.17;;
49828;SDS011;35723;51.194;5.112;2022-12-31T06:46:03;7.10;;;1.15;;
49828;SDS011;35723;51.194;5.112;2022-12-31T06:48:31;4.47;;;0.95;;
49828;SDS011;35723;51.194;5.112;2022-12-31T06:51:02;9.07;;;1.30;;
49828;SDS011;35723;51.194;5.112;2022-12-31T06:53:29;7.28;;;1.20;;
49828;SDS011;35723;51.194;5.112;2022-12-31T06:55:55;7.88;;;1.40;;
49828;SDS011;35723;51.194;5.112;2022-12-31T06:58:21;8.05;;;1.17;;
49828;SDS011;35723;51.194;5.112;2022-12-31T07:00:52;7.65;;;1.08;;
49828;SDS011;35723;51.194;5.112;2022-12-31T07:03:35;7.72;;;1.10;;
49828;SDS011;35723;51.194;5.112;2022-12-31T07:06:15;5.30;;;1.15;;
49828;SDS011;35723;51.194;5.112;2022-12-31T07:09:07;9.45;;;1.45;;
49828;SDS011;35723;51.194;5.112;2022-12-31T07:11:41;6.85;;;1.30;;
49828;SDS011;35723;51.194;5.112;2022-12-31T07:22:18;8.45;;;1.30;;
49828;SDS011;35723;51.194;5.112;2022-12-31T07:24:44;7.38;;;1.40;;
49828;SDS011;35723;51.194;5.112;2022-12-31T07:30:10;5.95;;;1.02;;
49828;SDS011;35723;51.194;5.112;2022-12-31T07:36:03;9.82;;;1.42;;
49828;SDS011;35723;51.194;5.112;2022-12-31T07:38:13;7.15;;;1.42;;
49828;SDS011;35723;51.194;5.112;2022-12-31T07:46:53;9.40;;;1.52;;
49828;SDS011;35723;51.194;5.112;2022-12-31T07:49:08;10.02;;;1.60;;
49828;SDS011;35723;51.194;5.112;2022-12-31T07:51:36;4.10;;;1.17;;
49828;SDS011;35723;51.194;5.112;2022-12-31T07:54:02;3.83;;;0.82;;
49828;SDS011;35723;51.194;5.112;2022-12-31T07:56:28;4.05;;;1.08;;
49828;SDS011;35723;51.194;5.112;2022-12-31T08:01:32;4.57;;;0.98;;
49828;SDS011;35723;51.194;5.112;2022-12-31T08:09:38;7.82;;;1.10;;
49828;SDS011;35723;51.194;5.112;2022-12-31T08:12:10;5.78;;;1.30;;
49828;SDS011;35723;51.194;5.112;2022-12-31T08:14:40;9.10;;;1.58;;
49828;SDS011;35723;51.194;5.112;2022-12-31T08:17:10;3.63;;;1.03;;
49828;SDS011;35723;51.194;5.112;2022-12-31T08:19:38;6.07;;;1.63;;
49828;SDS011;35723;51.194;5.112;2022-12-31T08:30:15;4.40;;;1.00;;
49828;SDS011;35723;51.194;5.112;2022-12-31T08:38:51;5.68;;;1.15;;
49828;SDS011;35723;51.194;5.112;2022-12-31T08:41:35;8.68;;;1.55;;
49828;SDS011;35723;51.194;5.112;2022-12-31T08:46:56;8.73;;;1.30;;
49828;SDS011;35723;51.194;5.112;2022-12-31T08:49:28;7.70;;;1.20;;
49828;SDS011;35723;51.194;5.112;2022-12-31T08:51:55;7.85;;;1.30;;
49828;SDS011;35723;51.194;5.112;2022-12-31T08:54:21;7.82;;;1.80;;
49828;SDS011;35723;51.194;5.112;2022-12-31T08:57:02;8.95;;;1.48;;
49828;SDS011;35723;51.194;5.112;2022-12-31T08:59:38;10.80;;;1.38;;
49828;SDS011;35723;51.194;5.112;2022-12-31T09:02:20;7.68;;;1.23;;
49828;SDS011;35723;51.194;5.112;2022-12-31T09:10:34;5.50;;;1.40;;
49828;SDS011;35723;51.194;5.112;2022-12-31T09:13:30;7.03;;;1.27;;
49828;SDS011;35723;51.194;5.112;2022-12-31T09:18:44;7.10;;;1.38;;
49828;SDS011;35723;51.194;5.112;2022-12-31T09:21:12;7.80;;;1.50;;
49828;SDS011;35723;51.194;5.112;2022-12-31T09:23:39;9.60;;;1.40;;
49828;SDS011;35723;51.194;5.112;2022-12-31T09:26:09;5.95;;;1.13;;
49828;SDS011;35723;51.194;5.112;2022-12-31T09:28:59;9.75;;;1.77;;
49828;SDS011;35723;51.194;5.112;2022-12-31T09:31:39;6.43;;;1.40;;
49828;SDS011;35723;51.194;5.112;2022-12-31T09:37:02;6.75;;;1.33;;
49828;SDS011;35723;51.194;5.112;2022-12-31T09:39:41;7.10;;;1.30;;
49828;SDS011;35723;51.194;5.112;2022-12-31T09:49:01;6.82;;;1.55;;
49828;SDS011;35723;51.194;5.112;2022-12-31T09:59:36;9.65;;;1.70;;
49828;SDS011;35723;51.194;5.112;2022-12-31T10:02:25;6.32;;;1.52;;
49828;SDS011;35723;51.194;5.112;2022-12-31T10:07:55;15.02;;;1.83;;
49828;SDS011;35723;51.194;5.112;2022-12-31T10:10:53;7.97;;;1.73;;
49828;SDS011;35723;51.194;5.112;2022-12-31T10:25:18;9.25;;;1.60;;
49828;SDS011;35723;51.194;5.112;2022-12-31T10:30:16;7.75;;;1.55;;
49828;SDS011;35723;51.194;5.112;2022-12-31T10:35:22;9.45;;;2.10;;
49828;SDS011;35723;51.194;5.112;2022-12-31T10:54:35;11.68;;;1.67;;
49828;SDS011;35723;51.194;5.112;2022-12-31T11:00:07;12.13;;;1.98;;
49828;SDS011;35723;51.194;5.112;2022-12-31T11:10:55;10.27;;;1.67;;
49828;SDS011;35723;51.194;5.112;2022-12-31T11:18:59;11.50;;;2.08;;
49828;SDS011;35723;51.194;5.112;2022-12-31T11:21:43;10.88;;;2.58;;
49828;SDS011;35723;51.194;5.112;2022-12-31T11:37:51;9.98;;;1.80;;
49828;SDS011;35723;51.194;5.112;2022-12-31T11:40:31;8.85;;;1.77;;
49828;SDS011;35723;51.194;5.112;2022-12-31T11:43:21;9.95;;;1.90;;
49828;SDS011;35723;51.194;5.112;2022-12-31T11:49:03;9.77;;;1.95;;
49828;SDS011;35723;51.194;5.112;2022-12-31T11:56:49;12.18;;;2.05;;
49828;SDS011;35723;51.194;5.112;2022-12-31T11:59:23;12.00;;;2.00;;
49828;SDS011;35723;51.194;5.112;2022-12-31T12:01:54;13.40;;;2.00;;
49828;SDS011;35723;51.194;5.112;2022-12-31T12:04:28;9.55;;;2.13;;
49828;SDS011;35723;51.194;5.112;2022-12-31T12:06:54;12.90;;;1.90;;
49828;SDS011;35723;51.194;5.112;2022-12-31T12:09:25;10.05;;;2.10;;
49828;SDS011;35723;51.194;5.112;2022-12-31T12:12:03;10.77;;;2.17;;
49828;SDS011;35723;51.194;5.112;2022-12-31T12:16:56;11.07;;;2.20;;
49828;SDS011;35723;51.194;5.112;2022-12-31T12:19:25;16.70;;;2.53;;
49828;SDS011;35723;51.194;5.112;2022-12-31T12:21:53;11.55;;;1.90;;
49828;SDS011;35723;51.194;5.112;2022-12-31T12:24:20;9.63;;;1.90;;
49828;SDS011;35723;51.194;5.112;2022-12-31T12:26:50;11.52;;;2.00;;
49828;SDS011;35723;51.194;5.112;2022-12-31T12:29:17;13.18;;;2.20;;
49828;SDS011;35723;51.194;5.112;2022-12-31T12:32:04;14.13;;;2.63;;
49828;SDS011;35723;51.194;5.112;2022-12-31T12:34:38;10.10;;;2.08;;
49828;SDS011;35723;51.194;5.112;2022-12-31T12:37:56;9.00;;;2.53;;
49828;SDS011;35723;51.194;5.112;2022-12-31T12:39:57;11.93;;;2.42;;
49828;SDS011;35723;51.194;5.112;2022-12-31T12:42:23;9.75;;;2.03;;
49828;SDS011;35723;51.194;5.112;2022-12-31T12:44:59;8.93;;;2.10;;
49828;SDS011;35723;51.194;5.112;2022-12-31T12:47:29;11.65;;;1.90;;
49828;SDS011;35723;51.194;5.112;2022-12-31T12:49:55;8.57;;;1.77;;
49828;SDS011;35723;51.194;5.112;2022-12-31T12:52:29;10.02;;;2.00;;
49828;SDS011;35723;51.194;5.112;2022-12-31T12:55:20;12.02;;;2.28;;
49828;SDS011;35723;51.194;5.112;2022-12-31T13:14:39;9.65;;;2.20;;
49828;SDS011;35723;51.194;5.112;2022-12-31T13:26:03;15.52;;;2.30;;
49828;SDS011;35723;51.194;5.112;2022-12-31T13:28:39;16.67;;;2.85;;
49828;SDS011;35723;51.194;5.112;2022-12-31T13:31:16;12.82;;;2.33;;
49828;SDS011;35723;51.194;5.112;2022-12-31T13:33:50;13.30;;;2.55;;
49828;SDS011;35723;51.194;5.112;2022-12-31T13:36:20;15.23;;;2.95;;
49828;SDS011;35723;51.194;5.112;2022-12-31T13:38:50;19.60;;;2.45;;
49828;SDS011;35723;51.194;5.112;2022-12-31T13:41:37;15.68;;;2.58;;
49828;SDS011;35723;51.194;5.112;2022-12-31T13:44:35;15.00;;;2.88;;
49828;SDS011;35723;51.194;5.112;2022-12-31T13:47:10;12.07;;;2.40;;
49828;SDS011;35723;51.194;5.112;2022-12-31T13:55:22;14.43;;;2.42;;
49828;SDS011;35723;51.194;5.112;2022-12-31T14:00:44;13.85;;;2.67;;
49828;SDS011;35723;51.194;5.112;2022-12-31T14:08:22;15.38;;;2.70;;
49828;SDS011;35723;51.194;5.112;2022-12-31T14:16:06;11.73;;;2.33;;
49828;SDS011;35723;51.194;5.112;2022-12-31T14:18:44;13.60;;;2.55;;
49828;SDS011;35723;51.194;5.112;2022-12-31T14:21:27;14.80;;;2.45;;
49828;SDS011;35723;51.194;5.112;2022-12-31T14:24:13;11.57;;;2.53;;
49828;SDS011;35723;51.194;5.112;2022-12-31T14:26:49;14.88;;;2.58;;
49828;SDS011;35723;51.194;5.112;2022-12-31T14:32:08;13.50;;;2.78;;
49828;SDS011;35723;51.194;5.112;2022-12-31T14:34:51;13.20;;;2.53;;
49828;SDS011;35723;51.194;5.112;2022-12-31T14:40:17;10.35;;;2.78;;
49828;SDS011;35723;51.194;5.112;2022-12-31T14:51:05;18.02;;;3.00;;
49828;SDS011;35723;51.194;5.112;2022-12-31T14:53:32;14.93;;;2.85;;
49828;SDS011;35723;51.194;5.112;2022-12-31T14:58:31;15.95;;;2.72;;
49828;SDS011;35723;51.194;5.112;2022-12-31T15:03:39;10.10;;;2.90;;
49828;SDS011;35723;51.194;5.112;2022-12-31T15:06:42;12.00;;;2.75;;
49828;SDS011;35723;51.194;5.112;2022-12-31T15:23:10;10.23;;;2.70;;
49828;SDS011;35723;51.194;5.112;2022-12-31T15:26:02;9.40;;;2.55;;
49828;SDS011;35723;51.194;5.112;2022-12-31T15:28:33;11.85;;;2.80;;
49828;SDS011;35723;51.194;5.112;2022-12-31T15:31:02;15.70;;;2.80;;
49828;SDS011;35723;51.194;5.112;2022-12-31T15:36:14;12.38;;;2.70;;
49828;SDS011;35723;51.194;5.112;2022-12-31T15:38:42;10.77;;;2.67;;
49828;SDS011;35723;51.194;5.112;2022-12-31T15:41:23;12.95;;;2.70;;
49828;SDS011;35723;51.194;5.112;2022-12-31T15:43:53;9.63;;;2.50;;
49828;SDS011;35723;51.194;5.112;2022-12-31T15:46:22;11.63;;;2.70;;
49828;SDS011;35723;51.194;5.112;2022-12-31T15:48:52;15.15;;;2.88;;
49828;SDS011;35723;51.194;5.112;2022-12-31T15:52:02;13.50;;;2.95;;
49828;SDS011;35723;51.194;5.112;2022-12-31T15:54:36;13.70;;;2.60;;
49828;SDS011;35723;51.194;5.112;2022-12-31T15:57:14;14.30;;;2.50;;
49828;SDS011;35723;51.194;5.112;2022-12-31T15:59:47;11.18;;;2.78;;
49828;SDS011;35723;51.194;5.112;2022-12-31T16:02:19;8.52;;;2.67;;
49828;SDS011;35723;51.194;5.112;2022-12-31T16:04:47;7.82;;;2.50;;
49828;SDS011;35723;51.194;5.112;2022-12-31T16:07:14;9.15;;;2.42;;
49828;SDS011;35723;51.194;5.112;2022-12-31T16:09:41;11.65;;;2.60;;
49828;SDS011;35723;51.194;5.112;2022-12-31T16:12:10;12.38;;;2.60;;
49828;SDS011;35723;51.194;5.112;2022-12-31T16:14:43;11.80;;;2.50;;
49828;SDS011;35723;51.194;5.112;2022-12-31T16:17:55;9.63;;;2.30;;
49828;SDS011;35723;51.194;5.112;2022-12-31T16:20:25;10.73;;;2.47;;
49828;SDS011;35723;51.194;5.112;2022-12-31T16:22:54;11.82;;;2.45;;
49828;SDS011;35723;51.194;5.112;2022-12-31T16:25:26;12.43;;;2.55;;
49828;SDS011;35723;51.194;5.112;2022-12-31T16:27:52;9.80;;;2.50;;
49828;SDS011;35723;51.194;5.112;2022-12-31T16:32:46;14.75;;;3.05;;
49828;SDS011;35723;51.194;5.112;2022-12-31T16:37:58;7.93;;;2.67;;
49828;SDS011;35723;51.194;5.112;2022-12-31T16:46:07;10.55;;;2.78;;
49828;SDS011;35723;51.194;5.112;2022-12-31T16:48:45;14.00;;;2.75;;
49828;SDS011;35723;51.194;5.112;2022-12-31T16:51:17;14.18;;;2.78;;
49828;SDS011;35723;51.194;5.112;2022-12-31T16:53:45;9.07;;;2.60;;
49828;SDS011;35723;51.194;5.112;2022-12-31T16:56:14;12.30;;;2.55;;
49828;SDS011;35723;51.194;5.112;2022-12-31T16:58:49;16.52;;;2.85;;
49828;SDS011;35723;51.194;5.112;2022-12-31T17:01:22;11.98;;;2.60;;
49828;SDS011;35723;51.194;5.112;2022-12-31T17:03:53;14.05;;;2.58;;
49828;SDS011;35723;51.194;5.112;2022-12-31T17:06:23;14.18;;;2.70;;
49828;SDS011;35723;51.194;5.112;2022-12-31T17:14:16;14.77;;;2.78;;
49828;SDS011;35723;51.194;5.112;2022-12-31T17:19:37;17.35;;;2.50;;
49828;SDS011;35723;51.194;5.112;2022-12-31T17:22:04;11.30;;;2.70;;
49828;SDS011;35723;51.194;5.112;2022-12-31T17:24:34;14.40;;;2.38;;
49828;SDS011;35723;51.194;5.112;2022-12-31T17:27:04;14.60;;;2.60;;
49828;SDS011;35723;51.194;5.112;2022-12-31T17:29:31;13.38;;;2.75;;
49828;SDS011;35723;51.194;5.112;2022-12-31T17:32:04;14.90;;;2.90;;
49828;SDS011;35723;51.194;5.112;2022-12-31T17:34:49;9.70;;;2.58;;
49828;SDS011;35723;51.194;5.112;2022-12-31T17:39:57;12.57;;;2.95;;
49828;SDS011;35723;51.194;5.112;2022-12-31T17:42:37;12.88;;;2.90;;
49828;SDS011;35723;51.194;5.112;2022-12-31T17:45:05;16.10;;;2.80;;
49828;SDS011;35723;51.194;5.112;2022-12-31T17:47:39;11.98;;;2.65;;
49828;SDS011;35723;51.194;5.112;2022-12-31T17:50:16;13.25;;;2.72;;
49828;SDS011;35723;51.194;5.112;2022-12-31T17:52:44;12.70;;;3.15;;
49828;SDS011;35723;51.194;5.112;2022-12-31T17:55:10;14.60;;;2.97;;
49828;SDS011;35723;51.194;5.112;2022-12-31T17:57:35;12.98;;;2.80;;
49828;SDS011;35723;51.194;5.112;2022-12-31T18:00:05;11.38;;;2.92;;
49828;SDS011;35723;51.194;5.112;2022-12-31T18:02:32;13.43;;;2.70;;
49828;SDS011;35723;51.194;5.112;2022-12-31T18:04:58;11.88;;;3.05;;
49828;SDS011;35723;51.194;5.112;2022-12-31T18:07:23;12.82;;;2.78;;
49828;SDS011;35723;51.194;5.112;2022-12-31T18:09:49;8.93;;;2.58;;
49828;SDS011;35723;51.194;5.112;2022-12-31T18:12:14;15.55;;;2.70;;
49828;SDS011;35723;51.194;5.112;2022-12-31T18:14:41;14.07;;;3.00;;
49828;SDS011;35723;51.194;5.112;2022-12-31T18:17:17;14.73;;;3.13;;
49828;SDS011;35723;51.194;5.112;2022-12-31T18:19:43;10.27;;;2.45;;
49828;SDS011;35723;51.194;5.112;2022-12-31T18:22:13;11.57;;;2.85;;
49828;SDS011;35723;51.194;5.112;2022-12-31T18:24:40;12.00;;;2.80;;
49828;SDS011;35723;51.194;5.112;2022-12-31T18:27:13;19.63;;;3.40;;
49828;SDS011;35723;51.194;5.112;2022-12-31T18:29:41;12.10;;;3.30;;
49828;SDS011;35723;51.194;5.112;2022-12-31T18:34:52;14.73;;;2.90;;
49828;SDS011;35723;51.194;5.112;2022-12-31T18:37:18;14.65;;;2.80;;
49828;SDS011;35723;51.194;5.112;2022-12-31T18:39:44;12.77;;;3.28;;
49828;SDS011;35723;51.194;5.112;2022-12-31T18:42:14;11.95;;;2.80;;
49828;SDS011;35723;51.194;5.112;2022-12-31T18:44:42;11.00;;;2.50;;
49828;SDS011;35723;51.194;5.112;2022-12-31T18:47:16;20.52;;;3.63;;
49828;SDS011;35723;51.194;5.112;2022-12-31T18:49:43;11.80;;;3.10;;
49828;SDS011;35723;51.194;5.112;2022-12-31T18:52:13;15.00;;;3.30;;
49828;SDS011;35723;51.194;5.112;2022-12-31T18:54:45;13.48;;;2.80;;
49828;SDS011;35723;51.194;5.112;2022-12-31T18:57:12;16.48;;;3.17;;
49828;SDS011;35723;51.194;5.112;2022-12-31T18:59:39;12.70;;;2.90;;
49828;SDS011;35723;51.194;5.112;2022-12-31T19:02:10;12.75;;;3.20;;
49828;SDS011;35723;51.194;5.112;2022-12-31T19:04:38;16.38;;;3.17;;
49828;SDS011;35723;51.194;5.112;2022-12-31T19:07:04;11.73;;;2.90;;
49828;SDS011;35723;51.194;5.112;2022-12-31T19:09:30;16.23;;;3.20;;
49828;SDS011;35723;51.194;5.112;2022-12-31T19:11:55;19.42;;;3.50;;
49828;SDS011;35723;51.194;5.112;2022-12-31T19:14:22;15.60;;;3.45;;
49828;SDS011;35723;51.194;5.112;2022-12-31T19:16:50;14.20;;;3.33;;
49828;SDS011;35723;51.194;5.112;2022-12-31T19:19:17;15.77;;;3.35;;
49828;SDS011;35723;51.194;5.112;2022-12-31T19:21:43;19.13;;;3.35;;
49828;SDS011;35723;51.194;5.112;2022-12-31T19:24:14;13.05;;;3.00;;
49828;SDS011;35723;51.194;5.112;2022-12-31T19:26:45;15.55;;;2.90;;
49828;SDS011;35723;51.194;5.112;2022-12-31T19:29:21;20.23;;;3.35;;
49828;SDS011;35723;51.194;5.112;2022-12-31T19:31:48;17.55;;;3.00;;
49828;SDS011;35723;51.194;5.112;2022-12-31T19:34:14;17.98;;;3.60;;
49828;SDS011;35723;51.194;5.112;2022-12-31T19:36:40;16.05;;;3.00;;